This is the latest recevied weather packets stored in our database for station/object SQ6ELQ-11. If no packets are shown the sender has not sent any weather packets the latest 10 day(s).
| Time | Temp. | Humidity | Pressure | Rain* | Wind** | Luminosity | Snow |
|---|---|---|---|---|---|---|---|
| 1777726426 | 22.78° C | 23% | 1022.3 hPa | 0 mm | - | - | - |
| 1777725306 | 22.22° C | 23% | 1022.5 hPa | 0 mm | - | - | - |
| 1777724196 | 21.11° C | 25% | 1022.8 hPa | 0 mm | - | - | - |
| 1777723191 | 21.11° C | 24% | 1022.9 hPa | 0 mm | - | - | - |
| 1777722161 | 20.56° C | 24% | 1023.1 hPa | 0 mm | - | - | - |
| 1777721093 | 20.56° C | 27% | 1023.3 hPa | 0 mm | - | - | - |
| 1777719983 | 20.56° C | 27% | 1023.5 hPa | 0 mm | - | - | - |
| 1777718869 | 20° C | 28% | 1023.6 hPa | 0 mm | - | - | - |
| 1777717778 | 20° C | 29% | 1023.7 hPa | 0 mm | - | - | - |
| 1777716695 | 19.44° C | 29% | 1023.9 hPa | 0 mm | - | - | - |
| 1777715549 | 18.89° C | 30% | 1024.2 hPa | 0 mm | - | - | - |
| 1777714476 | 18.33° C | 31% | 1024.4 hPa | 0 mm | - | - | - |
| 1777713381 | 17.22° C | 31% | 1024.5 hPa | 0 mm | - | - | - |
| 1777712361 | 17.22° C | 33% | 1024.8 hPa | 0 mm | - | - | - |
| 1777711279 | 16.67° C | 34% | 1024.8 hPa | 0 mm | - | - | - |
| 1777710133 | 16.11° C | 34% | 1025 hPa | 0 mm | - | - | - |
| 1777709081 | 15.56° C | 35% | 1025 hPa | 0 mm | - | - | - |
| 1777708023 | 15° C | 37% | 1025.1 hPa | 0 mm | - | - | - |
| 1777706968 | 14.44° C | 40% | 1025.1 hPa | 0 mm | - | - | - |
| 1777705991 | 13.89° C | 43% | 1025 hPa | 0 mm | - | - | - |
| 1777704961 | 12.78° C | 46% | 1025 hPa | 0 mm | - | - | - |
| 1777703933 | 11.11° C | 57% | 1024.9 hPa | 0 mm | - | - | - |
| 1777702872 | 10.56° C | 59% | 1025.1 hPa | 0 mm | - | - | - |
| 1777701716 | 9.44° C | 61% | 1025.1 hPa | 0 mm | - | - | - |
| 1777700676 | 7.22° C | 63% | 1025 hPa | 0 mm | - | - | - |
* Rain latest hour (hover to see other rain measurements)
** Current wind speed in m/s (hover to see current wind gust speed)